JST weather

John Murtha Johnstown Cambria County Airport
Johnstown, Pennsylvania, United States

Public forecast

Using degrees Fahrenheit for public forecast. Weather courtesy of forecast.io.

Current aviation weather report (METAR) for John Murtha Johnstown Cambria County Airport

Retrieved 2019/10/15 20:54 UTC (15 minutes ago):

KJST 152054Z AUTO 16010KT 10SM CLR 17/02 A3000 RMK AO2 SLP161 T01670017 56026

Aviation forecast (TAF) for John Murtha Johnstown Cambria County Airport

Retrieved 2019/10/15 18:48 UTC (2 hours ago):

TAF KJST 151745Z 1518/1618 17007KT P6SM FEW040 FM160000 15008KT P6SM BKN200 FM160600 17008KT P6SM OVC100 FM161000 17010KT P6SM -SHRA OVC040 FM161200 17010G17KT 3SM -RA BR OVC007 TEMPO 1614/1618 2SM -RA BR OVC003